createdAt,value
2024-02-03T00:45:53.999Z,45.57
2024-02-03T00:51:04.651Z,40.87
2024-02-03T00:56:23.304Z,50.67
2024-02-03T01:01:37.902Z,41.77
2024-02-03T01:07:08.302Z,37.37
2024-02-03T01:12:38.793Z,46.37
2024-02-03T01:18:18.399Z,41.27
2024-02-03T01:23:21.300Z,41.93
2024-02-03T01:28:25.911Z,41.03
2024-02-03T01:33:37.005Z,43.27
2024-02-03T01:39:08.328Z,42.33
2024-02-03T01:44:42.242Z,40.57
2024-02-03T01:50:00.120Z,37.60
2024-02-03T01:55:10.892Z,39.00
2024-02-03T02:00:24.290Z,38.20
2024-02-03T02:05:31.391Z,39.47
2024-02-03T02:10:48.748Z,42.57
2024-02-03T02:16:02.004Z,39.53
2024-02-03T02:21:07.385Z,38.03
2024-02-03T02:26:13.258Z,38.67
2024-02-03T02:31:24.383Z,38.70
2024-02-03T02:36:52.482Z,35.93
2024-02-03T02:42:00.022Z,37.47
2024-02-03T02:47:12.358Z,36.77
2024-02-03T02:52:26.150Z,33.23
2024-02-03T02:57:43.067Z,36.07
2024-02-03T03:02:48.673Z,32.10
2024-02-03T03:08:05.140Z,31.10
2024-02-03T03:13:18.727Z,34.50
2024-02-03T03:18:39.610Z,31.43
2024-02-03T03:23:47.923Z,33.60
2024-02-03T03:29:04.173Z,34.47
2024-02-03T03:34:24.491Z,36.27
2024-02-03T03:39:40.908Z,34.23
2024-02-03T03:51:26.795Z,32.10
2024-02-03T03:56:39.116Z,31.83
2024-02-03T04:02:30.321Z,36.07
2024-02-03T04:07:47.962Z,30.90
2024-02-03T04:12:57.015Z,33.37
2024-02-03T04:18:41.260Z,33.20
2024-02-03T04:23:59.609Z,32.50
2024-02-03T04:29:06.479Z,31.97
2024-02-03T04:34:18.412Z,28.17
2024-02-03T04:39:31.192Z,32.60
2024-02-03T04:44:52.208Z,28.07
2024-02-03T04:50:00.987Z,30.90
2024-02-03T04:55:26.350Z,27.90
2024-02-03T05:01:00.602Z,27.53
2024-02-03T05:06:38.916Z,27.50
2024-02-03T05:11:47.649Z,27.50
2024-02-03T05:17:12.949Z,27.23
2024-02-03T05:22:33.426Z,26.23
2024-02-03T05:27:48.146Z,27.70
2024-02-03T05:38:48.758Z,29.33
2024-02-03T05:44:02.701Z,26.30
2024-02-03T05:49:26.433Z,25.30
2024-02-03T05:54:34.376Z,27.97
2024-02-03T06:02:47.950Z,31.83
2024-02-03T06:05:53.063Z,27.30
2024-02-03T06:11:09.008Z,28.83
2024-02-03T06:22:06.178Z,28.07
2024-02-03T06:27:17.571Z,27.80
2024-02-03T06:38:06.681Z,22.20
2024-02-03T06:43:19.662Z,23.87
2024-02-03T06:48:31.520Z,22.90
2024-02-03T06:53:56.910Z,20.27
2024-02-03T07:00:07.538Z,19.57
2024-02-03T07:05:22.538Z,20.37
2024-02-03T07:10:46.824Z,18.03
2024-02-03T07:16:08.639Z,16.50
2024-02-03T07:21:24.520Z,17.50
2024-02-03T07:26:38.521Z,15.03
2024-02-03T07:38:11.681Z,14.10
2024-02-03T07:43:20.466Z,14.90
2024-02-03T07:48:41.125Z,13.83
2024-02-03T07:53:59.941Z,11.43
2024-02-03T08:27:50.989Z,14.30
2024-02-03T08:44:43.517Z,12.57
2024-02-03T08:50:56.514Z,11.97
2024-02-03T09:20:20.523Z,11.77
2024-02-03T09:50:32.726Z,11.23
2024-02-03T10:01:59.776Z,11.03
2024-02-03T10:25:36.974Z,11.63
2024-02-03T10:31:22.964Z,11.40
2024-02-03T10:37:07.034Z,13.53
2024-02-03T10:54:40.227Z,10.30
2024-02-03T11:00:03.240Z,11.67
2024-02-03T11:05:20.002Z,13.73
2024-02-03T11:10:39.953Z,12.30
2024-02-03T11:16:29.698Z,12.33
2024-02-03T22:39:55.599Z,3.93
2024-02-03T22:45:01.886Z,6.23
2024-02-03T23:20:43.472Z,4.70
2024-02-03T23:37:02.508Z,4.83
2024-02-03T23:42:17.766Z,4.60
2024-02-03T23:53:24.910Z,4.10
